Time;durP1;ratioP1;P1;durP2;ratioP2;P2;SDS_P1;SDS_P2;PMS_P1;PMS_P2;Temp;Humidity;BMP_temperature;BMP_pressure;BME280_temperature;BME280_humidity;BME280_pressure;Samples;Min_cycle;Max_cycle;Signal;HPM_P1;HPM_P2
2021/01/03 00:05:00;;;;;;;;;43.50;37.00;;;;;;;;12543406;28;8854;-54
2021/01/03 00:11:02;;;;;;;;;49.25;43.00;;;;;;;;12556166;28;8971;-56
2021/01/03 00:17:05;;;;;;;;;42.75;38.00;;;;;;;;12536283;28;8862;-56
2021/01/03 00:23:07;;;;;;;;;60.50;46.25;;;;;;;;12555183;28;8844;-56
2021/01/03 00:29:08;;;;;;;;;51.50;44.25;;;;;;;;12551285;28;8842;-55
2021/01/03 00:35:14;;;;;;;;;46.25;40.00;;;;;;;;12529937;28;8940;-55
2021/01/03 00:41:16;;;;;;;;;47.50;39.75;;;;;;;;12550794;28;9727;-56
2021/01/03 00:47:18;;;;;;;;;49.75;41.00;;;;;;;;12532801;28;8866;-55
2021/01/03 00:53:19;;;;;;;;;39.50;37.25;;;;;;;;12539086;28;8854;-55
2021/01/03 00:59:20;;;;;;;;;40.50;36.00;;;;;;;;12541292;28;8851;-55
2021/01/03 01:05:22;;;;;;;;;48.25;37.75;;;;;;;;12537987;28;9019;-55
2021/01/03 01:11:24;;;;;;;;;44.25;40.75;;;;;;;;12542370;28;9629;-55
2021/01/03 01:17:26;;;;;;;;;46.50;38.50;;;;;;;;12535574;28;8897;-54
2021/01/03 01:23:27;;;;;;;;;47.50;39.75;;;;;;;;12542728;28;8842;-57
2021/01/03 01:29:29;;;;;;;;;45.50;42.25;;;;;;;;12542223;28;8844;-55
2021/01/03 01:35:32;;;;;;;;;44.00;37.00;;;;;;;;12542832;28;8849;-55
2021/01/03 01:41:34;;;;;;;;;41.25;33.75;;;;;;;;12547378;28;8844;-55
2021/01/03 01:47:39;;;;;;;;;38.50;33.00;;;;;;;;12537391;28;8861;-56
2021/01/03 01:54:04;;;;;;;;;39.25;35.50;;;;;;;;12548008;28;8837;-55
2021/01/03 02:00:11;;;;;;;;;45.25;34.25;;;;;;;;12538146;28;9647;-54
2021/01/03 02:06:21;;;;;;;;;48.50;38.50;;;;;;;;12545723;28;8836;-55
2021/01/03 02:12:37;;;;;;;;;50.25;39.25;;;;;;;;12543424;28;8862;-54
2021/01/03 02:18:39;;;;;;;;;41.75;36.25;;;;;;;;12547669;28;8829;-55
2021/01/03 02:24:45;;;;;;;;;48.25;41.75;;;;;;;;12545024;28;8865;-55
2021/01/03 02:30:52;;;;;;;;;47.50;42.00;;;;;;;;12550865;28;8838;-55
2021/01/03 02:37:00;;;;;;;;;50.75;38.25;;;;;;;;12537521;28;9697;-55
2021/01/03 02:43:02;;;;;;;;;51.50;42.50;;;;;;;;12537735;28;8827;-55
2021/01/03 02:49:05;;;;;;;;;53.50;39.25;;;;;;;;12537440;28;8857;-55
2021/01/03 02:55:08;;;;;;;;;60.25;45.75;;;;;;;;12540174;28;8828;-55
2021/01/03 03:01:09;;;;;;;;;51.00;39.50;;;;;;;;12530794;28;8849;-56
2021/01/03 03:07:11;;;;;;;;;50.50;40.00;;;;;;;;12539411;28;8860;-55
2021/01/03 03:13:12;;;;;;;;;55.00;42.50;;;;;;;;12534376;28;8860;-54
2021/01/03 03:19:16;;;;;;;;;46.50;43.75;;;;;;;;12538229;28;8863;-54
2021/01/03 03:25:18;;;;;;;;;41.50;40.75;;;;;;;;12538855;28;8830;-55
2021/01/03 03:31:26;;;;;;;;;39.25;36.75;;;;;;;;12544601;28;8846;-55
2021/01/03 03:37:28;;;;;;;;;62.25;46.75;;;;;;;;12548661;28;8839;-54
2021/01/03 03:43:29;;;;;;;;;51.50;43.50;;;;;;;;12548713;28;8849;-55
2021/01/03 03:49:32;;;;;;;;;58.75;46.75;;;;;;;;12546987;28;9609;-53
2021/01/03 03:55:33;;;;;;;;;44.25;41.25;;;;;;;;12546554;28;8830;-56
2021/01/03 04:01:38;;;;;;;;;51.75;43.75;;;;;;;;12550972;28;8851;-54
2021/01/03 04:07:40;;;;;;;;;44.75;40.50;;;;;;;;12547855;28;8958;-55
2021/01/03 04:13:41;;;;;;;;;51.50;43.75;;;;;;;;12553656;28;9381;-54
2021/01/03 04:19:45;;;;;;;;;50.00;43.00;;;;;;;;12546716;28;9600;-55
2021/01/03 04:25:46;;;;;;;;;47.50;42.75;;;;;;;;12548156;28;8850;-55
2021/01/03 04:32:01;;;;;;;;;50.50;39.25;;;;;;;;12547405;28;8830;-55
2021/01/03 04:38:02;;;;;;;;;48.25;42.50;;;;;;;;12550831;28;8843;-54
2021/01/03 04:44:13;;;;;;;;;54.25;43.00;;;;;;;;12547037;28;8928;-56
2021/01/03 04:50:49;;;;;;;;;45.25;41.25;;;;;;;;12541380;28;9593;-54
2021/01/03 04:56:55;;;;;;;;;52.25;42.75;;;;;;;;12454876;28;8853;-55
2021/01/03 05:03:05;;;;;;;;;46.50;39.50;;;;;;;;12446009;28;9623;-55
2021/01/03 05:09:07;;;;;;;;;36.25;29.00;;;;;;;;12449382;28;9645;-54
2021/01/03 05:15:13;;;;;;;;;43.25;39.25;;;;;;;;12451741;28;8858;-55
2021/01/03 05:21:15;;;;;;;;;44.75;36.50;;;;;;;;12448804;28;8848;-55
2021/01/03 05:27:19;;;;;;;;;53.00;44.75;;;;;;;;12502050;28;8863;-56
2021/01/03 05:33:27;;;;;;;;;41.75;37.00;;;;;;;;12537322;28;8842;-54
2021/01/03 05:39:31;;;;;;;;;56.25;43.25;;;;;;;;12544635;28;8850;-56
2021/01/03 05:45:33;;;;;;;;;43.00;37.50;;;;;;;;12541406;28;8847;-55
2021/01/03 05:51:42;;;;;;;;;50.75;43.25;;;;;;;;12545535;28;8876;-55
2021/01/03 05:57:44;;;;;;;;;47.25;42.00;;;;;;;;12540021;28;8875;-55
2021/01/03 06:04:21;;;;;;;;;46.75;39.00;;;;;;;;12538173;28;8857;-55
2021/01/03 06:10:37;;;;;;;;;50.25;40.25;;;;;;;;12508467;28;8844;-55
2021/01/03 06:16:46;;;;;;;;;46.75;41.00;;;;;;;;12550261;28;8852;-55
2021/01/03 06:22:49;;;;;;;;;43.75;37.25;;;;;;;;12534450;28;8824;-56
2021/01/03 06:28:54;;;;;;;;;51.00;43.00;;;;;;;;12541241;28;8858;-55
2021/01/03 06:35:09;;;;;;;;;34.50;33.50;;;;;;;;12534092;28;8997;-55
2021/01/03 06:41:32;;;;;;;;;44.75;36.00;;;;;;;;12546318;28;9642;-56
2021/01/03 06:47:36;;;;;;;;;45.25;40.25;;;;;;;;12537263;28;8834;-56
2021/01/03 06:54:02;;;;;;;;;38.25;32.75;;;;;;;;12530134;28;8859;-56
2021/01/03 07:00:20;;;;;;;;;38.75;35.75;;;;;;;;12539240;28;8817;-56
2021/01/03 07:06:29;;;;;;;;;40.25;36.25;;;;;;;;12538496;28;8838;-56
2021/01/03 07:12:39;;;;;;;;;36.75;35.00;;;;;;;;12535078;28;8829;-55
2021/01/03 07:18:52;;;;;;;;;36.00;34.25;;;;;;;;12543029;28;8836;-57
2021/01/03 07:24:54;;;;;;;;;36.50;33.75;;;;;;;;12544297;28;8866;-55
2021/01/03 07:31:11;;;;;;;;;40.25;34.25;;;;;;;;12538051;28;8820;-55
2021/01/03 07:37:18;;;;;;;;;36.50;34.00;;;;;;;;12524929;28;9451;-56
2021/01/03 07:43:22;;;;;;;;;41.50;39.25;;;;;;;;12549326;28;8816;-57
2021/01/03 07:49:25;;;;;;;;;39.75;39.25;;;;;;;;12511890;28;10071;-56
2021/01/03 07:55:31;;;;;;;;;36.50;32.75;;;;;;;;12547618;28;8844;-56
2021/01/03 08:01:38;;;;;;;;;42.00;39.75;;;;;;;;12545829;28;8838;-56
2021/01/03 08:07:41;;;;;;;;;41.25;38.25;;;;;;;;12551468;28;8850;-56
2021/01/03 08:13:45;;;;;;;;;38.50;35.75;;;;;;;;12547134;28;8819;-56
2021/01/03 08:19:50;;;;;;;;;38.00;35.00;;;;;;;;12554219;28;8953;-57
2021/01/03 08:26:13;;;;;;;;;34.25;32.50;;;;;;;;12539220;28;8859;-56
2021/01/03 08:32:18;;;;;;;;;33.00;29.00;;;;;;;;12547134;28;9610;-58
2021/01/03 08:38:25;;;;;;;;;33.00;30.00;;;;;;;;12551172;28;8828;-56
2021/01/03 08:44:36;;;;;;;;;31.25;27.25;;;;;;;;12553925;28;8830;-56
2021/01/03 08:50:39;;;;;;;;;37.25;29.75;;;;;;;;12539470;28;8889;-56
2021/01/03 08:56:48;;;;;;;;;30.25;24.25;;;;;;;;12536402;28;8865;-56
2021/01/03 09:02:54;;;;;;;;;31.50;28.50;;;;;;;;12535920;28;8841;-57
2021/01/03 09:08:57;;;;;;;;;35.75;28.25;;;;;;;;12536253;28;8886;-56
2021/01/03 09:15:00;;;;;;;;;31.75;28.50;;;;;;;;12536272;28;8850;-56
2021/01/03 09:21:11;;;;;;;;;25.50;25.50;;;;;;;;12542725;28;8829;-56
2021/01/03 09:27:13;;;;;;;;;41.50;30.50;;;;;;;;12539572;28;8839;-56
2021/01/03 09:33:22;;;;;;;;;34.25;30.25;;;;;;;;12542145;28;8920;-56
2021/01/03 09:39:45;;;;;;;;;33.00;28.75;;;;;;;;12539795;28;8838;-57
2021/01/03 09:46:01;;;;;;;;;30.75;29.25;;;;;;;;12547173;28;8853;-55
2021/01/03 09:52:27;;;;;;;;;36.75;29.50;;;;;;;;12534999;28;9644;-57
2021/01/03 09:58:38;;;;;;;;;38.25;32.75;;;;;;;;12525849;28;8844;-55
2021/01/03 10:04:45;;;;;;;;;35.75;32.75;;;;;;;;12536970;28;8989;-56
2021/01/03 10:10:56;;;;;;;;;35.25;31.50;;;;;;;;12549532;28;8864;-56
2021/01/03 10:17:19;;;;;;;;;33.75;33.00;;;;;;;;12534718;28;8840;-58
2021/01/03 10:23:40;;;;;;;;;38.00;37.00;;;;;;;;12546358;28;8816;-57
2021/01/03 10:29:41;;;;;;;;;36.50;33.25;;;;;;;;12539137;28;8857;-56
2021/01/03 10:35:43;;;;;;;;;30.75;30.25;;;;;;;;12559819;28;8829;-57
2021/01/03 10:41:46;;;;;;;;;41.00;39.50;;;;;;;;12560359;28;8828;-56
2021/01/03 10:47:48;;;;;;;;;43.25;39.00;;;;;;;;12568208;28;8822;-57
2021/01/03 10:53:49;;;;;;;;;41.25;39.00;;;;;;;;12553067;28;9586;-58
2021/01/03 10:59:51;;;;;;;;;46.50;41.75;;;;;;;;12543431;28;8879;-55
2021/01/03 11:05:53;;;;;;;;;53.50;46.00;;;;;;;;12556112;28;8857;-56
2021/01/03 11:12:03;;;;;;;;;70.50;56.50;;;;;;;;12549859;28;8901;-57
2021/01/03 11:18:04;;;;;;;;;76.25;61.50;;;;;;;;12545100;28;8943;-57
2021/01/03 11:24:07;;;;;;;;;73.50;59.25;;;;;;;;12557649;28;8853;-57
2021/01/03 11:30:10;;;;;;;;;69.75;56.75;;;;;;;;12534363;28;8850;-55
2021/01/03 11:36:11;;;;;;;;;69.75;57.00;;;;;;;;12556313;28;8843;-56
2021/01/03 11:42:15;;;;;;;;;101.00;88.25;;;;;;;;12551467;28;8826;-56
2021/01/03 11:48:17;;;;;;;;;51.75;44.25;;;;;;;;12543923;28;8838;-57
2021/01/03 11:54:18;;;;;;;;;43.00;38.50;;;;;;;;12550867;28;10160;-57
2021/01/03 12:00:20;;;;;;;;;122.33;112.33;;;;;;;;12546334;28;8826;-57
2021/01/03 12:06:23;;;;;;;;;59.50;48.50;;;;;;;;12532878;28;9616;-56
2021/01/03 12:12:30;;;;;;;;;106.00;96.50;;;;;;;;12545026;28;8834;-56
2021/01/03 12:18:31;;;;;;;;;39.50;38.00;;;;;;;;12549036;28;8867;-58
2021/01/03 12:24:34;;;;;;;;;78.50;61.25;;;;;;;;12531490;28;8836;-57
2021/01/03 12:30:36;;;;;;;;;109.25;97.00;;;;;;;;12552186;28;8854;-56
2021/01/03 12:36:37;;;;;;;;;48.00;41.25;;;;;;;;12549153;28;8848;-57
2021/01/03 12:42:39;;;;;;;;;86.00;66.25;;;;;;;;12547193;28;8842;-57
2021/01/03 12:48:41;;;;;;;;;100.25;90.25;;;;;;;;12553429;28;8846;-58
2021/01/03 12:54:42;;;;;;;;;52.75;42.25;;;;;;;;12556141;28;8933;-56
2021/01/03 13:00:44;;;;;;;;;51.50;43.50;;;;;;;;12541962;28;8852;-58
2021/01/03 13:06:45;;;;;;;;;67.25;54.25;;;;;;;;12544248;28;8865;-59
2021/01/03 13:12:47;;;;;;;;;45.25;35.75;;;;;;;;12534071;28;8884;-57
2021/01/03 13:18:48;;;;;;;;;60.25;45.50;;;;;;;;12525952;28;8849;-57
2021/01/03 13:24:49;;;;;;;;;241.75;211.25;;;;;;;;12529603;28;8828;-57
2021/01/03 13:30:51;;;;;;;;;61.25;50.00;;;;;;;;12530860;28;8857;-56
2021/01/03 13:36:53;;;;;;;;;73.25;59.00;;;;;;;;12547470;28;8854;-58
2021/01/03 13:42:55;;;;;;;;;108.67;101.67;;;;;;;;12541496;28;8903;-57
2021/01/03 13:48:56;;;;;;;;;143.67;122.33;;;;;;;;12545120;28;8877;-57
2021/01/03 13:54:57;;;;;;;;;104.25;91.50;;;;;;;;12541331;28;8868;-55
2021/01/03 14:00:59;;;;;;;;;122.50;116.00;;;;;;;;12533241;28;8915;-56
2021/01/03 14:07:03;;;;;;;;;76.25;61.75;;;;;;;;12545218;28;8865;-56
2021/01/03 14:13:04;;;;;;;;;63.50;53.00;;;;;;;;12540401;28;8853;-58
2021/01/03 14:19:06;;;;;;;;;55.25;45.75;;;;;;;;12545763;28;8915;-56
2021/01/03 14:25:08;;;;;;;;;76.75;59.25;;;;;;;;12545575;28;9613;-58
2021/01/03 14:31:39;;;;;;;;;55.75;45.75;;;;;;;;12538547;28;8838;-57
2021/01/03 14:37:46;;;;;;;;;104.25;97.25;;;;;;;;12534725;28;8836;-56
2021/01/03 14:43:47;;;;;;;;;62.25;50.00;;;;;;;;12549857;28;8856;-59
2021/01/03 14:49:52;;;;;;;;;51.50;42.75;;;;;;;;12542036;28;8862;-57
2021/01/03 14:56:12;;;;;;;;;48.25;42.00;;;;;;;;12537427;28;8888;-56
2021/01/03 15:02:16;;;;;;;;;54.00;44.75;;;;;;;;12548215;28;8856;-58
2021/01/03 15:08:40;;;;;;;;;58.50;47.00;;;;;;;;12537742;28;9001;-58
2021/01/03 15:14:47;;;;;;;;;52.25;43.75;;;;;;;;12527716;28;9521;-57
2021/01/03 15:20:50;;;;;;;;;60.25;47.75;;;;;;;;12533091;28;8861;-57
2021/01/03 15:27:05;;;;;;;;;56.00;46.50;;;;;;;;12542052;28;8850;-56
2021/01/03 15:33:10;;;;;;;;;72.50;56.00;;;;;;;;12541971;28;8855;-57
2021/01/03 15:39:11;;;;;;;;;66.00;54.25;;;;;;;;12542716;28;8846;-58
2021/01/03 15:45:31;;;;;;;;;73.50;56.50;;;;;;;;12548116;28;8840;-58
2021/01/03 15:51:33;;;;;;;;;81.00;61.50;;;;;;;;12548793;28;8842;-56
2021/01/03 15:57:35;;;;;;;;;66.25;52.50;;;;;;;;12545043;28;8925;-57
2021/01/03 16:03:36;;;;;;;;;58.25;49.00;;;;;;;;12541689;28;8878;-57
2021/01/03 16:09:39;;;;;;;;;65.50;50.25;;;;;;;;12550448;28;8888;-57
2021/01/03 16:15:43;;;;;;;;;65.50;54.75;;;;;;;;12545117;28;8858;-59
2021/01/03 16:22:14;;;;;;;;;71.75;57.25;;;;;;;;12553765;28;9301;-56
2021/01/03 16:28:34;;;;;;;;;68.00;55.50;;;;;;;;12484197;28;8917;-56
2021/01/03 16:35:03;;;;;;;;;73.00;55.50;;;;;;;;12551600;28;8841;-58
2021/01/03 16:41:05;;;;;;;;;68.50;54.25;;;;;;;;12541786;28;8869;-56
2021/01/03 16:47:24;;;;;;;;;75.25;59.00;;;;;;;;12553050;28;8866;-56
2021/01/03 16:53:31;;;;;;;;;74.25;58.75;;;;;;;;12548749;28;8868;-57
2021/01/03 16:59:36;;;;;;;;;70.00;58.50;;;;;;;;12550726;28;9038;-56
2021/01/03 17:05:37;;;;;;;;;73.50;59.00;;;;;;;;12550996;28;8880;-58
2021/01/03 17:12:11;;;;;;;;;69.75;58.50;;;;;;;;12528972;28;8932;-56
2021/01/03 17:18:31;;;;;;;;;52.50;45.00;;;;;;;;12531135;28;9372;-57
2021/01/03 17:25:00;;;;;;;;;67.75;52.75;;;;;;;;12538962;28;8837;-55
2021/01/03 17:31:47;;;;;;;;;73.00;56.75;;;;;;;;12492456;28;8844;-58
2021/01/03 17:37:51;;;;;;;;;72.75;58.00;;;;;;;;12536990;28;8853;-56
2021/01/03 17:44:35;;;;;;;;;76.50;57.25;;;;;;;;12531957;28;9830;-57
2021/01/03 17:50:36;;;;;;;;;75.75;58.00;;;;;;;;12533747;28;8880;-57
2021/01/03 17:56:38;;;;;;;;;73.00;57.00;;;;;;;;12535880;28;8842;-58
2021/01/03 18:02:41;;;;;;;;;65.75;52.75;;;;;;;;12543561;28;8861;-56
2021/01/03 18:08:42;;;;;;;;;70.25;54.75;;;;;;;;12538833;28;8863;-57
2021/01/03 18:14:43;;;;;;;;;63.00;49.50;;;;;;;;12546521;28;8868;-56
2021/01/03 18:20:45;;;;;;;;;69.50;55.75;;;;;;;;12539776;28;8844;-56
2021/01/03 18:26:48;;;;;;;;;67.25;55.00;;;;;;;;12538766;28;8858;-56
2021/01/03 18:32:52;;;;;;;;;65.25;53.75;;;;;;;;12549001;28;8834;-56
2021/01/03 18:38:54;;;;;;;;;66.00;52.50;;;;;;;;12533566;28;8848;-57
2021/01/03 18:44:55;;;;;;;;;73.00;56.00;;;;;;;;12550022;28;8952;-57
2021/01/03 18:50:56;;;;;;;;;70.25;53.75;;;;;;;;12541828;28;8860;-57
2021/01/03 18:56:58;;;;;;;;;71.00;55.25;;;;;;;;12549758;28;9586;-56
2021/01/03 19:02:59;;;;;;;;;80.00;61.00;;;;;;;;12558872;28;8858;-59
2021/01/03 19:09:05;;;;;;;;;71.75;54.50;;;;;;;;12551535;28;8824;-58
2021/01/03 19:15:14;;;;;;;;;68.00;52.50;;;;;;;;12511855;28;9648;-56
2021/01/03 19:21:21;;;;;;;;;68.75;53.25;;;;;;;;12527175;28;8852;-57
2021/01/03 19:27:24;;;;;;;;;64.50;51.50;;;;;;;;12548346;28;8830;-56
2021/01/03 19:33:25;;;;;;;;;66.00;53.25;;;;;;;;12544636;28;8844;-56
2021/01/03 19:39:34;;;;;;;;;69.00;53.50;;;;;;;;12539044;28;9699;-56
2021/01/03 19:45:35;;;;;;;;;63.25;52.75;;;;;;;;12547217;28;9462;-57
2021/01/03 19:51:36;;;;;;;;;63.75;48.25;;;;;;;;12543673;28;8863;-57
2021/01/03 19:57:38;;;;;;;;;56.25;48.00;;;;;;;;12549349;28;8838;-57
2021/01/03 20:03:39;;;;;;;;;56.50;45.25;;;;;;;;12544177;28;8839;-56
2021/01/03 20:09:40;;;;;;;;;50.75;42.50;;;;;;;;12540612;28;8940;-57
2021/01/03 20:15:45;;;;;;;;;59.25;45.25;;;;;;;;12551032;28;8856;-56
2021/01/03 20:21:53;;;;;;;;;55.75;43.00;;;;;;;;12544334;28;8863;-57
2021/01/03 20:27:54;;;;;;;;;57.25;45.00;;;;;;;;12545968;28;8829;-57
2021/01/03 20:33:57;;;;;;;;;56.00;47.50;;;;;;;;12545277;28;8942;-56
2021/01/03 20:39:58;;;;;;;;;56.25;42.75;;;;;;;;12543704;28;8846;-58
2021/01/03 20:45:59;;;;;;;;;50.25;42.75;;;;;;;;12554460;28;8860;-56
2021/01/03 20:52:02;;;;;;;;;56.75;43.25;;;;;;;;12546604;28;8848;-57
2021/01/03 20:58:04;;;;;;;;;44.75;41.75;;;;;;;;12554190;28;8838;-57
2021/01/03 21:04:06;;;;;;;;;55.75;46.75;;;;;;;;12548295;28;8851;-56
2021/01/03 21:10:11;;;;;;;;;58.50;48.25;;;;;;;;12546936;28;8849;-56
2021/01/03 21:16:13;;;;;;;;;58.25;43.75;;;;;;;;12541117;28;8990;-56
2021/01/03 21:22:15;;;;;;;;;53.00;44.00;;;;;;;;12531568;28;8838;-57
2021/01/03 21:28:32;;;;;;;;;55.75;43.25;;;;;;;;12536033;28;8853;-56
2021/01/03 21:34:57;;;;;;;;;55.75;45.00;;;;;;;;12537298;28;8820;-55
2021/01/03 21:41:20;;;;;;;;;54.00;44.50;;;;;;;;12540218;28;8862;-56
2021/01/03 21:47:34;;;;;;;;;59.75;46.50;;;;;;;;12534625;28;8846;-56
2021/01/03 21:53:58;;;;;;;;;48.00;43.00;;;;;;;;12543366;28;8826;-56
2021/01/03 22:00:27;;;;;;;;;54.25;45.25;;;;;;;;12531626;28;8860;-56
2021/01/03 22:07:09;;;;;;;;;61.50;46.50;;;;;;;;12541714;28;8852;-56
2021/01/03 22:13:24;;;;;;;;;53.00;43.75;;;;;;;;12533548;28;8952;-55
2021/01/03 22:19:41;;;;;;;;;53.75;46.75;;;;;;;;12543716;28;8838;-56
2021/01/03 22:25:45;;;;;;;;;55.25;44.50;;;;;;;;12543899;28;8850;-55
2021/01/03 22:31:59;;;;;;;;;52.75;46.50;;;;;;;;12544372;28;8852;-57
2021/01/03 22:38:06;;;;;;;;;59.00;45.50;;;;;;;;12536239;28;8870;-56
2021/01/03 22:44:16;;;;;;;;;61.75;48.00;;;;;;;;12546337;28;8886;-56
2021/01/03 22:50:34;;;;;;;;;59.25;48.00;;;;;;;;12545962;28;8946;-55
2021/01/03 22:57:01;;;;;;;;;50.50;45.50;;;;;;;;12542933;28;9001;-56
2021/01/03 23:03:18;;;;;;;;;57.75;46.25;;;;;;;;12538764;28;8858;-56
2021/01/03 23:09:32;;;;;;;;;57.50;47.25;;;;;;;;12546228;28;8840;-57
2021/01/03 23:15:37;;;;;;;;;60.50;48.00;;;;;;;;12544364;28;8851;-58
2021/01/03 23:21:40;;;;;;;;;46.50;42.25;;;;;;;;12537740;28;9614;-55
2021/01/03 23:28:01;;;;;;;;;55.50;47.00;;;;;;;;12529957;28;8962;-55
2021/01/03 23:34:15;;;;;;;;;59.50;46.00;;;;;;;;12534499;28;8868;-56
2021/01/03 23:40:16;;;;;;;;;53.75;44.25;;;;;;;;12529922;28;8865;-57
2021/01/03 23:46:35;;;;;;;;;55.50;46.50;;;;;;;;12542733;28;8845;-55
2021/01/03 23:53:13;;;;;;;;;56.75;44.25;;;;;;;;12541793;28;8832;-55
2021/01/03 23:59:31;;;;;;;;;57.50;41.75;;;;;;;;12503756;28;8852;-56
